Time;durP1;ratioP1;P1;durP2;ratioP2;P2;SDS_P1;SDS_P2;PMS_P1;PMS_P2;Temp;Humidity;BMP_temperature;BMP_pressure;BME280_temperature;BME280_humidity;BME280_pressure;Samples;Min_cycle;Max_cycle;Signal;HPM_P1;HPM_P2
2022/09/07 00:00:01;;;;;;;;;;;;;;;23.96;51.70;98678.69;5094680;28;19922;-49
2022/09/07 00:02:30;;;;;;;;;;;;;;;23.83;52.33;98684.78;5093429;28;20382;-49
2022/09/07 00:04:55;;;;;;;;;;;;;;;23.76;52.81;98689.63;5094726;28;19920;-49
2022/09/07 00:07:21;;;;;;;;;;;;;;;23.86;52.54;98695.69;5094614;28;19998;-49
2022/09/07 00:09:47;;;;;;;;;;;;;;;23.93;52.00;98695.38;5094649;28;19958;-49
2022/09/07 00:12:12;;;;;;;;;;;;;;;23.86;52.21;98700.25;5094513;28;19915;-49
2022/09/07 00:14:38;;;;;;;;;;;;;;;23.68;52.53;98694.56;5094479;28;19912;-49
2022/09/07 00:17:03;;;;;;;;;;;;;;;23.45;53.26;98698.03;5094473;28;19919;-50
2022/09/07 00:19:29;;;;;;;;;;;;;;;23.37;53.96;98691.41;5094379;28;19912;-49
2022/09/07 00:21:54;;;;;;;;;;;;;;;23.33;53.81;98693.88;5094361;28;19997;-49
2022/09/07 00:24:19;;;;;;;;;;;;;;;23.42;53.96;98686.03;5094341;28;19998;-49
2022/09/07 00:26:45;;;;;;;;;;;;;;;23.44;53.75;98697.25;5092934;28;19955;-49
2022/09/07 00:29:10;;;;;;;;;;;;;;;23.36;54.01;98684.44;5094233;28;20424;-49
2022/09/07 00:31:36;;;;;;;;;;;;;;;23.20;54.49;98683.03;5094128;28;19912;-50
2022/09/07 00:34:01;;;;;;;;;;;;;;;23.05;55.39;98676.75;5093850;28;19927;-49
2022/09/07 00:36:30;;;;;;;;;;;;;;;22.99;55.68;98685.06;5092758;28;19916;-49
2022/09/07 00:38:56;;;;;;;;;;;;;;;22.97;55.85;98684.56;5092624;28;19916;-49
2022/09/07 00:41:21;;;;;;;;;;;;;;;22.90;56.08;98672.31;5093956;28;19918;-49
2022/09/07 00:43:49;;;;;;;;;;;;;;;22.98;56.18;98662.06;5092762;28;19912;-49
2022/09/07 00:46:19;;;;;;;;;;;;;;;23.00;56.20;98668.75;5092528;28;20230;-49
2022/09/07 00:48:44;;;;;;;;;;;;;;;23.03;56.06;98670.06;5093912;28;19912;-49
2022/09/07 00:51:13;;;;;;;;;;;;;;;23.00;55.80;98654.53;5092502;28;19912;-49
2022/09/07 00:53:42;;;;;;;;;;;;;;;23.04;56.16;98664.44;5092490;28;19955;-49
2022/09/07 00:56:08;;;;;;;;;;;;;;;23.10;56.26;98667.84;5093733;28;20275;-49
2022/09/07 00:58:35;;;;;;;;;;;;;;;23.21;56.03;98671.25;5093623;28;19912;-49
2022/09/07 01:01:01;;;;;;;;;;;;;;;23.22;55.89;98670.97;5093509;28;19912;-50
2022/09/07 01:03:29;;;;;;;;;;;;;;;23.24;56.21;98676.84;5093590;28;20050;-50
2022/09/07 01:05:58;;;;;;;;;;;;;;;22.82;57.45;98670.25;5093587;28;19957;-49
2022/09/07 01:08:23;;;;;;;;;;;;;;;22.45;58.00;98671.59;5092157;28;19912;-49
2022/09/07 01:10:49;;;;;;;;;;;;;;;22.37;59.15;98672.19;5093450;28;20086;-49
2022/09/07 01:13:14;;;;;;;;;;;;;;;22.44;58.46;98663.88;5093377;28;19923;-49
2022/09/07 01:15:40;;;;;;;;;;;;;;;22.53;58.38;98664.84;5092026;28;19916;-49
2022/09/07 01:18:11;;;;;;;;;;;;;;;22.49;58.37;98658.47;5093305;28;19977;-49
2022/09/07 01:20:54;;;;;;;;;;;;;;;22.47;58.25;98665.97;5093155;28;19973;-48
2022/09/07 01:23:19;;;;;;;;;;;;;;;22.37;58.51;98661.47;5091977;28;19911;-49
2022/09/07 01:25:52;;;;;;;;;;;;;;;22.43;57.76;98655.03;5091844;28;20019;-49
2022/09/07 01:28:28;;;;;;;;;;;;;;;22.38;58.23;98655.06;5093383;28;19935;-49
2022/09/07 01:30:56;;;;;;;;;;;;;;;22.40;58.33;98658.25;5093028;28;19916;-49
2022/09/07 01:33:31;;;;;;;;;;;;;;;22.42;57.97;98664.13;5091447;28;20316;-48
2022/09/07 01:36:15;;;;;;;;;;;;;;;22.45;58.21;98658.22;5092962;28;19926;-49
2022/09/07 01:38:42;;;;;;;;;;;;;;;22.47;57.57;98658.72;5091586;28;19915;-49
2022/09/07 01:41:08;;;;;;;;;;;;;;;22.40;57.92;98654.81;5092852;28;20014;-48
2022/09/07 01:43:47;;;;;;;;;;;;;;;22.34;57.51;98652.16;5092886;28;19990;-49
2022/09/07 01:46:34;;;;;;;;;;;;;;;22.29;58.10;98648.72;5093401;28;19912;-49
2022/09/07 01:49:03;;;;;;;;;;;;;;;22.28;58.32;98641.78;5092842;28;20325;-49
2022/09/07 01:51:31;;;;;;;;;;;;;;;22.27;58.36;98642.84;5091328;28;19916;-49
2022/09/07 01:54:00;;;;;;;;;;;;;;;22.24;58.45;98638.84;5092696;28;19981;-49
2022/09/07 01:56:43;;;;;;;;;;;;;;;22.28;58.70;98631.88;5090980;28;20274;-48
2022/09/07 01:59:22;;;;;;;;;;;;;;;22.58;58.29;98637.25;5091194;28;19912;-49
2022/09/07 02:01:53;;;;;;;;;;;;;;;22.59;57.42;98631.63;5092876;28;19966;-49
2022/09/07 02:04:21;;;;;;;;;;;;;;;22.44;57.55;98635.25;5092510;28;19912;-49
2022/09/07 02:06:48;;;;;;;;;;;;;;;22.31;57.81;98631.31;5092565;28;19916;-49
2022/09/07 02:09:37;;;;;;;;;;;;;;;22.27;57.94;98627.59;5092457;28;19916;-49
2022/09/07 02:12:06;;;;;;;;;;;;;;;22.30;57.67;98627.03;5086665;28;19912;-49
2022/09/07 02:14:37;;;;;;;;;;;;;;;22.31;57.75;98633.19;5092441;28;20301;-49
2022/09/07 02:17:06;;;;;;;;;;;;;;;22.38;57.77;98639.03;5092355;28;20298;-49
2022/09/07 02:19:39;;;;;;;;;;;;;;;22.55;57.31;98641.28;5090970;28;19923;-49
2022/09/07 02:22:09;;;;;;;;;;;;;;;22.73;57.19;98637.94;5092455;28;19916;-49
2022/09/07 02:24:38;;;;;;;;;;;;;;;22.89;56.24;98637.78;5092642;28;19915;-49
2022/09/07 02:27:11;;;;;;;;;;;;;;;23.09;55.88;98628.78;5092321;28;20001;-49
2022/09/07 02:29:37;;;;;;;;;;;;;;;22.98;55.60;98635.28;5092396;28;20045;-49
2022/09/07 02:32:03;;;;;;;;;;;;;;;22.86;55.93;98633.81;5092244;28;19916;-49
2022/09/07 02:34:28;;;;;;;;;;;;;;;22.64;55.92;98630.81;5091928;28;19916;-49
2022/09/07 02:36:55;;;;;;;;;;;;;;;22.36;56.54;98625.13;5092169;28;19919;-49
2022/09/07 02:39:20;;;;;;;;;;;;;;;22.46;56.66;98611.69;5090724;28;20389;-49
2022/09/07 02:41:45;;;;;;;;;;;;;;;22.73;56.73;98608.50;5090877;28;19912;-49
2022/09/07 02:44:22;;;;;;;;;;;;;;;22.78;55.86;98599.63;5092135;28;19920;-49
2022/09/07 02:46:56;;;;;;;;;;;;;;;22.40;55.97;98602.09;5092188;28;19912;-49
2022/09/07 02:49:33;;;;;;;;;;;;;;;22.01;56.98;98596.75;5090785;28;20354;-49
2022/09/07 02:52:10;;;;;;;;;;;;;;;21.83;57.99;98596.34;5090755;28;20020;-49
2022/09/07 02:54:54;;;;;;;;;;;;;;;21.78;58.22;98582.19;5092075;28;19960;-49
2022/09/07 02:57:40;;;;;;;;;;;;;;;21.67;58.66;98592.13;5091978;28;20306;-49
2022/09/07 03:00:09;;;;;;;;;;;;;;;21.65;59.13;98581.75;5083120;28;19912;-49
2022/09/07 03:03:07;;;;;;;;;;;;;;;21.61;59.25;98585.22;5091993;28;20015;-49
2022/09/07 03:05:41;;;;;;;;;;;;;;;21.61;59.94;98591.38;5068400;28;20004;-49
2022/09/07 03:08:22;;;;;;;;;;;;;;;21.52;60.07;98585.78;5094824;28;19912;-48
2022/09/07 03:10:48;;;;;;;;;;;;;;;21.35;60.69;98596.78;5094451;28;20441;-49
2022/09/07 03:13:24;;;;;;;;;;;;;;;21.29;60.29;98597.09;5095675;28;19951;-48
2022/09/07 03:15:49;;;;;;;;;;;;;;;21.42;59.95;98593.03;5077477;28;19912;-49
2022/09/07 03:18:15;;;;;;;;;;;;;;;21.61;59.83;98587.88;5094346;28;19912;-49
2022/09/07 03:20:40;;;;;;;;;;;;;;;22.00;59.44;98590.59;5094158;28;19939;-49
2022/09/07 03:23:06;;;;;;;;;;;;;;;22.35;58.39;98580.75;5094159;28;20007;-49
2022/09/07 03:25:31;;;;;;;;;;;;;;;22.43;58.01;98577.47;5094132;28;19912;-49
2022/09/07 03:27:57;;;;;;;;;;;;;;;22.45;57.59;98582.53;5094023;28;19919;-49
2022/09/07 03:30:22;;;;;;;;;;;;;;;22.38;57.17;98588.22;5095336;28;19912;-48
2022/09/07 03:32:47;;;;;;;;;;;;;;;22.32;57.53;98589.34;5094968;28;19912;-50
2022/09/07 03:35:13;;;;;;;;;;;;;;;22.17;57.22;98584.06;5095234;28;19920;-49
2022/09/07 03:37:38;;;;;;;;;;;;;;;22.03;57.53;98581.22;5093954;28;19916;-49
2022/09/07 03:40:06;;;;;;;;;;;;;;;22.00;58.13;98579.91;5095111;28;19916;-49
2022/09/07 03:42:31;;;;;;;;;;;;;;;22.12;58.54;98571.56;5095416;28;19918;-49
2022/09/07 03:44:57;;;;;;;;;;;;;;;22.37;58.27;98575.13;5095381;28;19995;-48
2022/09/07 03:47:22;;;;;;;;;;;;;;;22.76;57.83;98577.72;5093721;28;19950;-49
2022/09/07 03:49:50;;;;;;;;;;;;;;;23.30;57.31;98581.16;5093761;28;19912;-49
2022/09/07 03:52:16;;;;;;;;;;;;;;;23.46;56.34;98582.59;5094999;28;19912;-49
2022/09/07 03:54:41;;;;;;;;;;;;;;;23.65;56.34;98592.53;5094920;28;20321;-49
2022/09/07 03:57:07;;;;;;;;;;;;;;;23.68;55.36;98579.34;5094840;28;19965;-49
2022/09/07 03:59:32;;;;;;;;;;;;;;;23.56;55.43;98575.47;5094809;28;20403;-49
2022/09/07 04:01:58;;;;;;;;;;;;;;;23.66;55.36;98586.88;5093530;28;19912;-49
2022/09/07 04:04:23;;;;;;;;;;;;;;;23.88;54.94;98582.84;5094742;28;19919;-49
2022/09/07 04:06:49;;;;;;;;;;;;;;;23.94;54.49;98573.63;5093398;28;19912;-48
2022/09/07 04:09:15;;;;;;;;;;;;;;;24.02;54.28;98567.59;5094619;28;20304;-49
2022/09/07 04:11:41;;;;;;;;;;;;;;;24.06;54.02;98563.25;5094634;28;19922;-49
2022/09/07 04:14:07;;;;;;;;;;;;;;;24.13;54.05;98563.69;5094555;28;19934;-48
2022/09/07 04:16:32;;;;;;;;;;;;;;;24.00;54.09;98560.94;5093126;28;19916;-49
2022/09/07 04:19:01;;;;;;;;;;;;;;;23.42;53.96;98562.00;5094123;28;19919;-48
2022/09/07 04:21:27;;;;;;;;;;;;;;;22.70;55.16;98555.56;5093111;28;19916;-49
2022/09/07 04:23:53;;;;;;;;;;;;;;;22.48;56.27;98549.91;5094363;28;19911;-49
2022/09/07 04:26:20;;;;;;;;;;;;;;;22.55;56.64;98558.38;5094309;28;19912;-49
2022/09/07 04:28:46;;;;;;;;;;;;;;;22.73;56.67;98544.28;5092959;28;20302;-49
2022/09/07 04:31:15;;;;;;;;;;;;;;;22.80;56.09;98546.63;5094437;28;19912;-48
2022/09/07 04:33:44;;;;;;;;;;;;;;;22.48;56.33;98536.53;5093898;28;19927;-50
2022/09/07 04:36:10;;;;;;;;;;;;;;;22.49;57.19;98536.22;5094143;28;19961;-48
2022/09/07 04:38:38;;;;;;;;;;;;;;;22.51;57.22;98527.94;5094043;28;19915;-48
2022/09/07 04:41:14;;;;;;;;;;;;;;;22.23;57.02;98530.28;5093927;28;19912;-49
2022/09/07 04:43:39;;;;;;;;;;;;;;;21.98;58.16;98538.53;5092772;28;20352;-48
2022/09/07 04:46:16;;;;;;;;;;;;;;;22.33;58.51;98538.28;5092579;28;19912;-47
2022/09/07 04:48:42;;;;;;;;;;;;;;;22.51;57.76;98530.59;5092610;28;19912;-49
2022/09/07 04:51:08;;;;;;;;;;;;;;;22.18;57.31;98532.22;5093803;28;19961;-48
2022/09/07 04:53:35;;;;;;;;;;;;;;;21.80;57.70;98535.44;5092785;28;20293;-48
2022/09/07 04:56:00;;;;;;;;;;;;;;;21.40;58.55;98537.22;5092411;28;19986;-49
2022/09/07 04:58:29;;;;;;;;;;;;;;;21.08;59.67;98543.75;5093773;28;19920;-49
2022/09/07 05:00:59;;;;;;;;;;;;;;;21.06;59.98;98551.25;5092245;28;19949;-49
2022/09/07 05:03:25;;;;;;;;;;;;;;;21.17;60.56;98545.88;5093661;28;19968;-49
2022/09/07 05:05:50;;;;;;;;;;;;;;;20.97;61.02;98547.56;5092211;28;19912;-49
2022/09/07 05:08:16;;;;;;;;;;;;;;;20.68;61.67;98536.69;5092159;28;19921;-49
2022/09/07 05:10:49;;;;;;;;;;;;;;;20.45;62.32;98524.72;5092151;28;19938;-49
2022/09/07 05:13:14;;;;;;;;;;;;;;;20.24;63.03;98527.41;5093406;28;19912;-47
2022/09/07 05:15:40;;;;;;;;;;;;;;;20.04;64.11;98530.84;5092020;28;20423;-46
2022/09/07 05:18:05;;;;;;;;;;;;;;;20.02;63.58;98529.50;5093347;28;19912;-47
2022/09/07 05:20:31;;;;;;;;;;;;;;;20.17;63.53;98520.72;5091889;28;20404;-47
2022/09/07 05:22:58;;;;;;;;;;;;;;;20.32;63.42;98516.19;5093181;28;19919;-46
2022/09/07 05:25:25;;;;;;;;;;;;;;;20.26;63.45;98511.94;5093117;28;19916;-46
2022/09/07 05:27:51;;;;;;;;;;;;;;;20.21;63.47;98509.25;5091821;28;20384;-47
2022/09/07 05:30:16;;;;;;;;;;;;;;;20.46;63.78;98515.63;5091129;28;20023;-47
2022/09/07 05:32:43;;;;;;;;;;;;;;;20.95;63.26;98525.69;5093039;28;19951;-47
2022/09/07 05:35:09;;;;;;;;;;;;;;;21.35;62.04;98535.38;5092960;28;19923;-48
2022/09/07 05:37:35;;;;;;;;;;;;;;;21.65;61.55;98535.50;5092924;28;19912;-47
2022/09/07 05:40:00;;;;;;;;;;;;;;;21.82;60.53;98540.50;5092749;28;19923;-49
2022/09/07 05:42:26;;;;;;;;;;;;;;;21.76;60.10;98542.41;5091559;28;19912;-48
2022/09/07 05:44:54;;;;;;;;;;;;;;;21.46;60.48;98541.50;5092887;28;20344;-48
2022/09/07 05:47:20;;;;;;;;;;;;;;;21.48;61.00;98546.56;5092782;28;20351;-48
2022/09/07 05:49:45;;;;;;;;;;;;;;;21.65;60.29;98557.69;5092705;28;19961;-47
2022/09/07 05:52:11;;;;;;;;;;;;;;;21.43;60.65;98549.25;5092739;28;19912;-47
2022/09/07 05:54:37;;;;;;;;;;;;;;;21.58;60.99;98551.84;5092764;28;19919;-48
2022/09/07 05:57:03;;;;;;;;;;;;;;;22.26;59.34;98558.38;5092636;28;19912;-48
2022/09/07 05:59:28;;;;;;;;;;;;;;;23.07;57.89;98554.13;5092548;28;20321;-47
2022/09/07 06:01:54;;;;;;;;;;;;;;;23.93;55.82;98562.13;5092840;28;19919;-48
2022/09/07 06:04:19;;;;;;;;;;;;;;;24.48;53.82;98566.06;5092536;28;19915;-47
2022/09/07 06:06:44;;;;;;;;;;;;;;;24.75;53.73;98573.44;5091238;28;20045;-48
2022/09/07 06:09:11;;;;;;;;;;;;;;;25.15;53.24;98564.88;5091071;28;20389;-47
2022/09/07 06:11:37;;;;;;;;;;;;;;;25.89;52.34;98570.03;5092486;28;19918;-48
2022/09/07 06:14:02;;;;;;;;;;;;;;;26.79;50.93;98571.94;5091126;28;20082;-47
2022/09/07 06:16:28;;;;;;;;;;;;;;;27.62;49.51;98580.09;5091112;28;19916;-48
2022/09/07 06:18:53;;;;;;;;;;;;;;;28.13;48.31;98585.06;5092668;28;20439;-49
2022/09/07 06:21:20;;;;;;;;;;;;;;;28.34;47.50;98585.19;5092287;28;20343;-48
2022/09/07 06:23:46;;;;;;;;;;;;;;;28.46;47.12;98585.34;5092333;28;19962;-48
2022/09/07 06:26:13;;;;;;;;;;;;;;;28.47;46.71;98581.50;5092253;28;19912;-48
2022/09/07 06:28:41;;;;;;;;;;;;;;;28.61;45.89;98590.22;5090986;28;20405;-47
2022/09/07 06:31:08;;;;;;;;;;;;;;;28.61;45.48;98603.72;5092278;28;19919;-48
2022/09/07 06:33:33;;;;;;;;;;;;;;;28.73;45.97;98603.06;5092033;28;19950;-48
2022/09/07 06:36:03;;;;;;;;;;;;;;;29.02;45.39;98596.94;5090925;28;19912;-48
2022/09/07 06:38:36;;;;;;;;;;;;;;;29.43;44.54;98594.69;5092198;28;19912;-48
2022/09/07 06:41:01;;;;;;;;;;;;;;;29.86;43.63;98604.44;5091965;28;20282;-49
2022/09/07 06:43:27;;;;;;;;;;;;;;;30.27;42.77;98605.53;5096301;28;20007;-48
2022/09/07 06:45:53;;;;;;;;;;;;;;;30.86;41.38;98605.22;5096291;28;19929;-48
2022/09/07 06:48:19;;;;;;;;;;;;;;;31.72;40.02;98609.09;5096144;28;19916;-48
2022/09/07 06:50:53;;;;;;;;;;;;;;;32.56;38.79;98603.72;5096129;28;19921;-48
2022/09/07 06:53:19;;;;;;;;;;;;;;;33.82;37.02;98612.09;5094892;28;19912;-49
2022/09/07 06:55:44;;;;;;;;;;;;;;;34.70;36.56;98608.00;5096088;28;19918;-48
2022/09/07 06:58:09;;;;;;;;;;;;;;;35.51;34.95;98604.19;5094736;28;19961;-48
2022/09/07 07:00:35;;;;;;;;;;;;;;;35.29;34.22;98605.81;5094590;28;19919;-48
2022/09/07 07:03:00;;;;;;;;;;;;;;;34.57;34.76;98612.78;5095984;28;19912;-49
2022/09/07 07:05:26;;;;;;;;;;;;;;;33.90;35.20;98616.56;5094634;28;19920;-50
2022/09/07 07:07:51;;;;;;;;;;;;;;;33.49;35.60;98616.06;5094562;28;19916;-49
2022/09/07 07:10:17;;;;;;;;;;;;;;;32.53;35.68;98617.16;5094515;28;19916;-50
2022/09/07 07:12:42;;;;;;;;;;;;;;;31.35;37.30;98615.34;5095827;28;19954;-50
2022/09/07 07:15:08;;;;;;;;;;;;;;;30.69;38.45;98619.00;5095728;28;19912;-48
2022/09/07 07:17:34;;;;;;;;;;;;;;;30.37;39.04;98609.78;5095706;28;19912;-48
2022/09/07 07:20:00;;;;;;;;;;;;;;;30.06;39.47;98609.06;5095588;28;19920;-48
2022/09/07 07:22:26;;;;;;;;;;;;;;;29.87;39.96;98608.72;5095610;28;19934;-47
2022/09/07 07:24:54;;;;;;;;;;;;;;;29.74;40.34;98610.59;5094278;28;20266;-48
2022/09/07 07:27:20;;;;;;;;;;;;;;;29.57;40.73;98603.34;5095425;28;19957;-48
2022/09/07 07:29:46;;;;;;;;;;;;;;;29.43;40.79;98613.59;5095731;28;19976;-48
2022/09/07 07:32:12;;;;;;;;;;;;;;;29.24;41.38;98604.00;5095299;28;20389;-48
2022/09/07 07:34:37;;;;;;;;;;;;;;;29.31;41.21;98602.72;5095150;28;19916;-47
2022/09/07 07:37:03;;;;;;;;;;;;;;;29.37;41.28;98599.47;5095269;28;19912;-49
2022/09/07 07:39:28;;;;;;;;;;;;;;;29.36;41.28;98594.41;5093923;28;19912;-50
2022/09/07 07:41:54;;;;;;;;;;;;;;;29.26;41.60;98596.38;5095529;28;19922;-50
2022/09/07 07:44:19;;;;;;;;;;;;;;;29.63;41.60;98596.63;5093842;28;19911;-49
2022/09/07 07:46:49;;;;;;;;;;;;;;;30.59;40.24;98603.16;5095121;28;19912;-48
2022/09/07 07:49:15;;;;;;;;;;;;;;;30.60;39.57;98594.69;5095358;28;19957;-48
2022/09/07 07:51:40;;;;;;;;;;;;;;;30.57;39.85;98595.38;5094997;28;20382;-48
2022/09/07 07:54:06;;;;;;;;;;;;;;;31.99;38.41;98600.16;5094313;28;19919;-49
2022/09/07 07:56:32;;;;;;;;;;;;;;;34.02;35.97;98602.78;5094896;28;20301;-50
2022/09/07 07:58:58;;;;;;;;;;;;;;;35.79;32.97;98601.84;5094870;28;19912;-49
2022/09/07 08:01:23;;;;;;;;;;;;;;;37.18;31.15;98598.94;5093423;28;20374;-49
2022/09/07 08:03:49;;;;;;;;;;;;;;;38.36;29.74;98595.19;5094748;28;19962;-49
2022/09/07 08:06:16;;;;;;;;;;;;;;;39.31;28.19;98590.09;5094680;28;19947;-50
2022/09/07 08:08:42;;;;;;;;;;;;;;;40.08;26.96;98585.94;5093382;28;19935;-50
2022/09/07 08:11:08;;;;;;;;;;;;;;;40.85;25.38;98574.00;5094695;28;20377;-49
2022/09/07 08:13:39;;;;;;;;;;;;;;;41.33;24.40;98578.66;5094606;28;20010;-49
2022/09/07 08:16:05;;;;;;;;;;;;;;;41.34;23.82;98573.97;5094618;28;20396;-48
2022/09/07 08:18:32;;;;;;;;;;;;;;;40.91;24.36;98581.44;5093194;28;19967;-48
2022/09/07 08:21:02;;;;;;;;;;;;;;;39.89;24.99;98579.75;5093008;28;20321;-49
2022/09/07 08:23:30;;;;;;;;;;;;;;;38.99;25.90;98595.66;5094360;28;19912;-49
2022/09/07 08:25:57;;;;;;;;;;;;;;;38.22;26.60;98597.91;5094273;28;19937;-49
2022/09/07 08:28:24;;;;;;;;;;;;;;;37.31;27.48;98601.41;5094255;28;19912;-49
2022/09/07 08:30:50;;;;;;;;;;;;;;;36.53;28.70;98596.81;5094285;28;19923;-49
2022/09/07 08:33:15;;;;;;;;;;;;;;;36.14;29.05;98586.25;5094007;28;19916;-50
2022/09/07 08:35:41;;;;;;;;;;;;;;;35.66;29.50;98591.53;5092877;28;19978;-50
2022/09/07 08:38:06;;;;;;;;;;;;;;;35.29;30.35;98590.22;5094144;28;19919;-50
2022/09/07 08:40:35;;;;;;;;;;;;;;;34.91;30.92;98589.22;5093984;28;19915;-49
2022/09/07 08:43:03;;;;;;;;;;;;;;;34.12;31.89;98593.25;5094008;28;19915;-49
2022/09/07 08:45:49;;;;;;;;;;;;;;;33.91;32.21;98584.69;5092679;28;20383;-50
2022/09/07 08:48:19;;;;;;;;;;;;;;;34.53;32.26;98590.13;5093956;28;20009;-49
2022/09/07 08:50:57;;;;;;;;;;;;;;;35.85;30.79;98577.72;5093971;28;20407;-50
2022/09/07 08:53:24;;;;;;;;;;;;;;;36.89;29.74;98575.28;5093897;28;19921;-47
2022/09/07 08:55:54;;;;;;;;;;;;;;;38.06;29.13;98565.38;5094025;28;20401;-49
2022/09/07 08:58:22;;;;;;;;;;;;;;;38.78;27.97;98558.03;5093738;28;19912;-48
2022/09/07 09:00:48;;;;;;;;;;;;;;;39.34;27.25;98561.06;5093600;28;19915;-51
2022/09/07 09:03:35;;;;;;;;;;;;;;;39.48;27.63;98563.81;5092271;28;19915;-49
2022/09/07 09:06:19;;;;;;;;;;;;;;;39.47;26.45;98555.97;5092799;28;19935;-49
2022/09/07 09:08:44;;;;;;;;;;;;;;;39.42;25.87;98559.91;5093793;28;20389;-51
2022/09/07 09:11:12;;;;;;;;;;;;;;;39.55;26.30;98561.03;5092161;28;19967;-52
2022/09/07 09:13:41;;;;;;;;;;;;;;;39.71;26.02;98557.81;5093532;28;19923;-52
2022/09/07 09:16:16;;;;;;;;;;;;;;;39.41;26.04;98552.03;5093305;28;19963;-52
2022/09/07 09:18:48;;;;;;;;;;;;;;;39.76;25.85;98567.59;5093580;28;20392;-50
2022/09/07 09:21:15;;;;;;;;;;;;;;;40.42;25.61;98549.59;5091873;28;19912;-52
2022/09/07 09:23:42;;;;;;;;;;;;;;;40.87;25.15;98555.94;5093193;28;19916;-52
2022/09/07 09:26:22;;;;;;;;;;;;;;;41.76;24.21;98556.16;5069536;28;20471;-51
2022/09/07 09:28:47;;;;;;;;;;;;;;;42.86;22.80;98543.88;5069581;28;20394;-51
2022/09/07 09:31:18;;;;;;;;;;;;;;;43.70;22.25;98544.63;5069753;28;19924;-52
2022/09/07 09:33:43;;;;;;;;;;;;;;;44.09;21.78;98551.28;5068175;28;19925;-50
2022/09/07 09:36:30;;;;;;;;;;;;;;;43.97;21.29;98540.88;5069403;28;19940;-52
2022/09/07 09:38:55;;;;;;;;;;;;;;;43.98;21.31;98534.16;5069665;28;19921;-49
2022/09/07 09:41:21;;;;;;;;;;;;;;;44.28;20.51;98524.75;5068028;28;20306;-49
2022/09/07 09:43:54;;;;;;;;;;;;;;;44.42;20.92;98521.63;5069188;28;20394;-51
2022/09/07 09:46:30;;;;;;;;;;;;;;;44.58;20.53;98504.25;5067966;28;20350;-50
2022/09/07 09:48:57;;;;;;;;;;;;;;;44.54;20.45;98500.81;5067875;28;20382;-51
2022/09/07 09:51:24;;;;;;;;;;;;;;;44.46;20.59;98496.66;5069109;28;19928;-50
2022/09/07 09:54:26;;;;;;;;;;;;;;;44.47;20.55;98501.00;5069063;28;19939;-49
2022/09/07 09:56:51;;;;;;;;;;;;;;;44.49;20.47;98497.78;5066545;28;19917;-50
2022/09/07 09:59:17;;;;;;;;;;;;;;;44.54;20.57;98503.59;5050126;28;19917;-50
2022/09/07 10:01:44;;;;;;;;;;;;;;;44.15;18.96;98499.78;5049969;28;19966;-52
2022/09/07 10:04:38;;;;;;;;;;;;;;;42.81;20.38;98495.41;5066426;28;19920;-49
2022/09/07 10:07:10;;;;;;;;;;;;;;;41.86;21.26;98494.56;5049533;28;19936;-48
2022/09/07 10:09:37;;;;;;;;;;;;;;;41.99;21.80;98485.72;5066560;28;20317;-49
2022/09/07 10:12:04;;;;;;;;;;;;;;;42.79;21.47;98481.25;5066295;28;20499;-49
2022/09/07 10:14:32;;;;;;;;;;;;;;;43.84;20.70;98477.94;5066471;28;20363;-51
2022/09/07 10:16:58;;;;;;;;;;;;;;;44.29;20.16;98470.97;5066343;28;19920;-50
2022/09/07 10:19:23;;;;;;;;;;;;;;;44.59;20.02;98478.13;5049511;28;20386;-50
2022/09/07 10:21:59;;;;;;;;;;;;;;;44.73;19.71;98476.19;5049471;28;19955;-50
2022/09/07 10:24:26;;;;;;;;;;;;;;;44.26;20.12;98461.56;5044241;28;19921;-52
2022/09/07 10:26:52;;;;;;;;;;;;;;;43.79;20.02;98459.13;5046143;28;20312;-52
2022/09/07 10:29:23;;;;;;;;;;;;;;;43.06;20.48;98461.03;5046305;28;19925;-51
2022/09/07 10:32:01;;;;;;;;;;;;;;;42.51;21.24;98454.97;5048145;28;20373;-52
2022/09/07 10:34:33;;;;;;;;;;;;;;;42.15;21.31;98452.03;5047075;28;19921;-50
2022/09/07 10:37:10;;;;;;;;;;;;;;;42.21;21.79;98442.84;5038469;28;19925;-51
2022/09/07 10:39:38;;;;;;;;;;;;;;;42.73;21.35;98438.78;5035053;28;19940;-48
2022/09/07 10:42:22;;;;;;;;;;;;;;;43.65;20.66;98432.56;5034937;28;20391;-50
2022/09/07 10:44:54;;;;;;;;;;;;;;;44.59;20.29;98425.53;5034842;28;20391;-50
2022/09/07 10:47:26;;;;;;;;;;;;;;;44.24;20.13;98416.94;5034905;28;19917;-50
2022/09/07 10:49:56;;;;;;;;;;;;;;;43.48;20.12;98417.16;5033480;28;19917;-50
2022/09/07 10:52:34;;;;;;;;;;;;;;;43.36;20.60;98410.31;5034732;28;19917;-51
2022/09/07 10:55:13;;;;;;;;;;;;;;;44.04;20.22;98391.38;5033427;28;19925;-50
2022/09/07 10:57:48;;;;;;;;;;;;;;;44.41;19.87;98397.53;5034963;28;19921;-51
2022/09/07 11:00:15;;;;;;;;;;;;;;;44.67;19.70;98390.91;5033346;28;19917;-51
2022/09/07 11:02:59;;;;;;;;;;;;;;;45.29;19.39;98389.94;5034568;28;20434;-51
2022/09/07 11:05:30;;;;;;;;;;;;;;;44.75;18.91;98382.41;5034416;28;19917;-50
2022/09/07 11:08:03;;;;;;;;;;;;;;;43.53;20.06;98380.72;5033204;28;19917;-51
2022/09/07 11:10:46;;;;;;;;;;;;;;;41.95;20.70;98380.25;5034460;28;20027;-51
2022/09/07 11:13:15;;;;;;;;;;;;;;;40.46;22.13;98379.81;5034703;28;20391;-51
2022/09/07 11:16:10;;;;;;;;;;;;;;;39.02;23.08;98369.84;5034363;28;20019;-50
2022/09/07 11:18:38;;;;;;;;;;;;;;;37.76;25.39;98374.69;5025076;28;19943;-51
2022/09/07 11:21:10;;;;;;;;;;;;;;;37.34;25.74;98365.97;5034196;28;20354;-50
2022/09/07 11:23:42;;;;;;;;;;;;;;;36.91;26.54;98371.28;5034247;28;19921;-50
2022/09/07 11:26:18;;;;;;;;;;;;;;;36.28;26.85;98369.75;5072037;28;20404;-48
2022/09/07 11:28:43;;;;;;;;;;;;;;;35.75;27.70;98368.91;5074296;28;19916;-49
2022/09/07 11:31:17;;;;;;;;;;;;;;;35.48;28.48;98362.78;5056302;28;19966;-48
2022/09/07 11:33:51;;;;;;;;;;;;;;;35.81;28.37;98358.44;5073923;28;19969;-49
2022/09/07 11:36:19;;;;;;;;;;;;;;;35.97;27.89;98358.94;5073916;28;19920;-49
2022/09/07 11:38:58;;;;;;;;;;;;;;;35.75;28.23;98360.72;5055834;28;19916;-49
2022/09/07 11:41:35;;;;;;;;;;;;;;;35.93;28.67;98360.88;5055811;28;20297;-48
2022/09/07 11:44:04;;;;;;;;;;;;;;;36.63;27.74;98350.06;5073982;28;19917;-49
2022/09/07 11:46:44;;;;;;;;;;;;;;;36.76;27.76;98343.13;5073543;28;19920;-49
2022/09/07 11:49:29;;;;;;;;;;;;;;;36.97;27.20;98331.47;5072631;28;20418;-49
2022/09/07 11:52:04;;;;;;;;;;;;;;;36.97;27.18;98328.72;5073483;28;19916;-49
2022/09/07 11:54:42;;;;;;;;;;;;;;;36.82;27.31;98323.59;5055570;28;19917;-48
2022/09/07 11:57:25;;;;;;;;;;;;;;;36.30;28.37;98327.22;5073449;28;20424;-49
2022/09/07 11:59:50;;;;;;;;;;;;;;;35.88;28.68;98324.94;5055542;28;19942;-47
2022/09/07 12:02:36;;;;;;;;;;;;;;;35.59;28.90;98322.72;5055417;28;19916;-49
2022/09/07 12:05:19;;;;;;;;;;;;;;;35.53;29.15;98315.25;5041589;28;19916;-49
2022/09/07 12:08:02;;;;;;;;;;;;;;;35.63;29.14;98308.31;5073367;28;19916;-49
2022/09/07 12:10:53;;;;;;;;;;;;;;;36.03;28.84;98309.44;5055334;28;19921;-50
2022/09/07 12:13:30;;;;;;;;;;;;;;;36.21;28.91;98304.91;5073212;28;19951;-49
2022/09/07 12:15:58;;;;;;;;;;;;;;;36.28;29.37;98304.97;5055127;28;19917;-48
2022/09/07 12:18:30;;;;;;;;;;;;;;;36.34;28.90;98299.88;5055113;28;19924;-49
2022/09/07 12:20:55;;;;;;;;;;;;;;;36.36;29.00;98295.63;5072982;28;19917;-49
2022/09/07 12:23:26;;;;;;;;;;;;;;;36.35;28.71;98293.28;5072998;28;19923;-48
2022/09/07 12:26:12;;;;;;;;;;;;;;;36.35;29.03;98290.53;5072525;28;19920;-48
2022/09/07 12:28:37;;;;;;;;;;;;;;;36.22;28.78;98287.31;5072703;28;19920;-49
2022/09/07 12:31:04;;;;;;;;;;;;;;;36.28;28.87;98282.28;5072791;28;19927;-49
2022/09/07 12:33:31;;;;;;;;;;;;;;;36.50;28.87;98275.78;5072671;28;19916;-49
2022/09/07 12:36:01;;;;;;;;;;;;;;;36.64;29.00;98266.88;5054701;28;20345;-49
2022/09/07 12:38:29;;;;;;;;;;;;;;;37.04;28.89;98259.56;5072694;28;19920;-49
2022/09/07 12:40:59;;;;;;;;;;;;;;;37.31;28.19;98251.03;5072519;28;19954;-49
2022/09/07 12:43:27;;;;;;;;;;;;;;;37.51;28.27;98256.88;5072611;28;19924;-48
2022/09/07 12:45:55;;;;;;;;;;;;;;;37.41;27.80;98261.19;5072458;28;19945;-49
2022/09/07 12:48:45;;;;;;;;;;;;;;;37.40;28.07;98254.16;5072372;28;19924;-49
2022/09/07 12:51:34;;;;;;;;;;;;;;;37.86;28.32;98253.38;5064876;28;20469;-49
2022/09/07 12:54:05;;;;;;;;;;;;;;;38.28;26.85;98259.19;5046308;28;19923;-52
2022/09/07 12:56:37;;;;;;;;;;;;;;;38.67;26.52;98255.50;5054455;28;19920;-51
2022/09/07 12:59:20;;;;;;;;;;;;;;;39.02;26.17;98259.25;5054178;28;19931;-50